sensor_id;sensor_type;location;lat;lon;timestamp;pressure;altitude;pressure_sealevel;temperature;humidity
68948;BME280;55996;49.546;7.400;2024-03-22T00:00:38;-19678.84;;;8.58;100.00
68948;BME280;55996;49.546;7.400;2024-03-22T00:03:04;-19680.34;;;8.63;100.00
68948;BME280;55996;49.546;7.400;2024-03-22T00:05:29;-19682.50;;;8.71;100.00
68948;BME280;55996;49.546;7.400;2024-03-22T00:07:55;-19682.22;;;8.70;100.00
68948;BME280;55996;49.546;7.400;2024-03-22T00:10:20;-19683.44;;;8.75;100.00
68948;BME280;55996;49.546;7.400;2024-03-22T00:12:45;-19681.81;;;8.69;100.00
68948;BME280;55996;49.546;7.400;2024-03-22T00:15:11;-19681.56;;;8.68;100.00
68948;BME280;55996;49.546;7.400;2024-03-22T00:17:36;-19682.78;;;8.72;100.00
68948;BME280;55996;49.546;7.400;2024-03-22T00:20:02;-19683.84;;;8.77;100.00
68948;BME280;55996;49.546;7.400;2024-03-22T00:22:27;-19680.22;;;8.63;100.00
68948;BME280;55996;49.546;7.400;2024-03-22T00:24:52;-19683.19;;;8.74;100.00
68948;BME280;55996;49.546;7.400;2024-03-22T00:27:18;-19681.97;;;8.69;100.00
68948;BME280;55996;49.546;7.400;2024-03-22T00:29:43;-19684.13;;;8.78;100.00
68948;BME280;55996;49.546;7.400;2024-03-22T00:32:09;-19679.13;;;8.59;100.00
68948;BME280;55996;49.546;7.400;2024-03-22T00:34:35;-19683.72;;;8.76;100.00
68948;BME280;55996;49.546;7.400;2024-03-22T00:37:00;-19680.06;;;8.62;100.00
68948;BME280;55996;49.546;7.400;2024-03-22T00:39:26;-19684.94;;;8.81;100.00
68948;BME280;55996;49.546;7.400;2024-03-22T00:41:51;-19682.78;;;8.72;100.00
68948;BME280;55996;49.546;7.400;2024-03-22T00:44:16;-19679.00;;;8.58;100.00
68948;BME280;55996;49.546;7.400;2024-03-22T00:46:42;-19681.28;;;8.67;100.00
68948;BME280;55996;49.546;7.400;2024-03-22T00:49:07;-19678.19;;;8.55;100.00
68948;BME280;55996;49.546;7.400;2024-03-22T00:51:32;-19681.69;;;8.68;100.00
68948;BME280;55996;49.546;7.400;2024-03-22T00:53:58;-19680.47;;;8.64;100.00
68948;BME280;55996;49.546;7.400;2024-03-22T00:56:23;-19680.22;;;8.63;100.00
68948;BME280;55996;49.546;7.400;2024-03-22T00:58:48;-19681.97;;;8.69;100.00
68948;BME280;55996;49.546;7.400;2024-03-22T01:01:14;-19680.34;;;8.63;100.00
68948;BME280;55996;49.546;7.400;2024-03-22T01:03:39;-19680.47;;;8.64;100.00
68948;BME280;55996;49.546;7.400;2024-03-22T01:06:05;-19684.41;;;8.79;100.00
68948;BME280;55996;49.546;7.400;2024-03-22T01:08:30;-19683.19;;;8.74;100.00
68948;BME280;55996;49.546;7.400;2024-03-22T01:10:56;-19681.03;;;8.66;100.00
68948;BME280;55996;49.546;7.400;2024-03-22T01:13:21;-19678.44;;;8.56;100.00
68948;BME280;55996;49.546;7.400;2024-03-22T01:15:47;-19682.22;;;8.70;100.00
68948;BME280;55996;49.546;7.400;2024-03-22T01:18:12;-19680.47;;;8.64;100.00
68948;BME280;55996;49.546;7.400;2024-03-22T01:20:37;-19682.63;;;8.72;100.00
68948;BME280;55996;49.546;7.400;2024-03-22T01:23:08;-19684.25;;;8.78;100.00
68948;BME280;55996;49.546;7.400;2024-03-22T01:25:33;-19683.03;;;8.74;100.00
68948;BME280;55996;49.546;7.400;2024-03-22T01:27:58;-19683.19;;;8.74;100.00
68948;BME280;55996;49.546;7.400;2024-03-22T01:30:24;-19681.28;;;8.67;100.00
68948;BME280;55996;49.546;7.400;2024-03-22T01:32:54;-19683.19;;;8.74;100.00
68948;BME280;55996;49.546;7.400;2024-03-22T01:35:19;-19684.94;;;8.81;100.00
68948;BME280;55996;49.546;7.400;2024-03-22T01:37:44;-19682.63;;;8.72;100.00
68948;BME280;55996;49.546;7.400;2024-03-22T01:40:10;-19682.78;;;8.72;100.00
68948;BME280;55996;49.546;7.400;2024-03-22T01:42:36;-19682.91;;;8.73;100.00
68948;BME280;55996;49.546;7.400;2024-03-22T01:45:01;-19682.22;;;8.70;100.00
68948;BME280;55996;49.546;7.400;2024-03-22T01:47:28;-19683.72;;;8.76;100.00
68948;BME280;55996;49.546;7.400;2024-03-22T01:49:54;-19683.84;;;8.77;100.00
68948;BME280;55996;49.546;7.400;2024-03-22T01:52:20;-19686.16;;;8.85;100.00
68948;BME280;55996;49.546;7.400;2024-03-22T01:54:46;-19684.13;;;8.78;100.00
68948;BME280;55996;49.546;7.400;2024-03-22T01:57:11;-19682.22;;;8.70;100.00
68948;BME280;55996;49.546;7.400;2024-03-22T01:59:36;-19681.97;;;8.69;100.00
68948;BME280;55996;49.546;7.400;2024-03-22T02:02:02;-19680.63;;;8.64;100.00
68948;BME280;55996;49.546;7.400;2024-03-22T02:04:28;-19683.03;;;8.74;100.00
68948;BME280;55996;49.546;7.400;2024-03-22T02:06:53;-19683.19;;;8.74;100.00
68948;BME280;55996;49.546;7.400;2024-03-22T02:09:19;-19684.00;;;8.77;100.00
68948;BME280;55996;49.546;7.400;2024-03-22T02:11:46;-19682.50;;;8.71;100.00
68948;BME280;55996;49.546;7.400;2024-03-22T02:14:11;-19679.25;;;8.59;100.00
68948;BME280;55996;49.546;7.400;2024-03-22T02:16:39;-19680.75;;;8.65;100.00
68948;BME280;55996;49.546;7.400;2024-03-22T02:19:05;-19680.06;;;8.62;100.00
68948;BME280;55996;49.546;7.400;2024-03-22T02:21:31;-19679.94;;;8.62;100.00
68948;BME280;55996;49.546;7.400;2024-03-22T02:23:56;-19677.91;;;8.54;100.00
68948;BME280;55996;49.546;7.400;2024-03-22T02:26:21;-19677.91;;;8.54;100.00
68948;BME280;55996;49.546;7.400;2024-03-22T02:28:47;-19676.03;;;8.47;100.00
68948;BME280;55996;49.546;7.400;2024-03-22T02:31:12;-19676.84;;;8.50;100.00
68948;BME280;55996;49.546;7.400;2024-03-22T02:33:37;-19677.91;;;8.54;100.00
68948;BME280;55996;49.546;7.400;2024-03-22T02:36:03;-19674.94;;;8.43;100.00
68948;BME280;55996;49.546;7.400;2024-03-22T02:38:28;-19675.63;;;8.45;100.00
68948;BME280;55996;49.546;7.400;2024-03-22T02:40:54;-19674.94;;;8.43;100.00
68948;BME280;55996;49.546;7.400;2024-03-22T02:43:19;-19676.69;;;8.49;100.00
68948;BME280;55996;49.546;7.400;2024-03-22T02:45:47;-19675.75;;;8.46;100.00
68948;BME280;55996;49.546;7.400;2024-03-22T02:48:12;-19677.91;;;8.54;100.00
68948;BME280;55996;49.546;7.400;2024-03-22T02:50:38;-19674.25;;;8.40;100.00
68948;BME280;55996;49.546;7.400;2024-03-22T02:53:04;-19672.25;;;8.32;100.00
68948;BME280;55996;49.546;7.400;2024-03-22T02:55:30;-19670.22;;;8.24;100.00
68948;BME280;55996;49.546;7.400;2024-03-22T02:57:58;-19673.03;;;8.35;100.00
68948;BME280;55996;49.546;7.400;2024-03-22T03:00:23;-19672.25;;;8.32;100.00
68948;BME280;55996;49.546;7.400;2024-03-22T03:02:50;-19674.94;;;8.43;100.00
68948;BME280;55996;49.546;7.400;2024-03-22T03:05:15;-19675.06;;;8.43;100.00
68948;BME280;55996;49.546;7.400;2024-03-22T03:07:41;-19677.50;;;8.52;100.00
68948;BME280;55996;49.546;7.400;2024-03-22T03:10:06;-19672.50;;;8.33;100.00
68948;BME280;55996;49.546;7.400;2024-03-22T03:12:32;-19672.78;;;8.34;100.00
68948;BME280;55996;49.546;7.400;2024-03-22T03:14:58;-19669.53;;;8.22;100.00
68948;BME280;55996;49.546;7.400;2024-03-22T03:17:23;-19669.81;;;8.23;100.00
68948;BME280;55996;49.546;7.400;2024-03-22T03:19:48;-19670.63;;;8.26;100.00
68948;BME280;55996;49.546;7.400;2024-03-22T03:22:14;-19670.06;;;8.24;100.00
68948;BME280;55996;49.546;7.400;2024-03-22T03:24:40;-19672.78;;;8.34;100.00
68948;BME280;55996;49.546;7.400;2024-03-22T03:27:05;-19676.44;;;8.48;100.00
68948;BME280;55996;49.546;7.400;2024-03-22T03:29:31;-19676.97;;;8.50;100.00
68948;BME280;55996;49.546;7.400;2024-03-22T03:31:56;-19676.69;;;8.49;100.00
68948;BME280;55996;49.546;7.400;2024-03-22T03:34:21;-19679.13;;;8.59;100.00
68948;BME280;55996;49.546;7.400;2024-03-22T03:36:47;-19677.63;;;8.53;100.00
68948;BME280;55996;49.546;7.400;2024-03-22T03:39:12;-19674.94;;;8.43;100.00
68948;BME280;55996;49.546;7.400;2024-03-22T03:41:38;-19674.66;;;8.42;100.00
68948;BME280;55996;49.546;7.400;2024-03-22T03:44:04;-19675.88;;;8.46;100.00
68948;BME280;55996;49.546;7.400;2024-03-22T03:46:29;-19677.25;;;8.51;100.00
68948;BME280;55996;49.546;7.400;2024-03-22T03:48:54;-19675.75;;;8.46;100.00
68948;BME280;55996;49.546;7.400;2024-03-22T03:51:20;-19674.94;;;8.43;100.00
68948;BME280;55996;49.546;7.400;2024-03-22T03:53:45;-19675.06;;;8.43;100.00
68948;BME280;55996;49.546;7.400;2024-03-22T03:56:11;-19672.63;;;8.34;100.00
68948;BME280;55996;49.546;7.400;2024-03-22T03:58:36;-19673.84;;;8.38;100.00
68948;BME280;55996;49.546;7.400;2024-03-22T04:01:08;-19678.03;;;8.54;100.00
68948;BME280;55996;49.546;7.400;2024-03-22T04:03:34;-19676.28;;;8.48;100.00
68948;BME280;55996;49.546;7.400;2024-03-22T04:06:00;-19675.88;;;8.46;100.00
68948;BME280;55996;49.546;7.400;2024-03-22T04:08:26;-19675.88;;;8.46;100.00
68948;BME280;55996;49.546;7.400;2024-03-22T04:10:55;-19674.81;;;8.42;100.00
68948;BME280;55996;49.546;7.400;2024-03-22T04:13:24;-19672.63;;;8.34;100.00
68948;BME280;55996;49.546;7.400;2024-03-22T04:15:50;-19676.97;;;8.50;100.00
68948;BME280;55996;49.546;7.400;2024-03-22T04:18:15;-19675.22;;;8.44;100.00
68948;BME280;55996;49.546;7.400;2024-03-22T04:20:40;-19674.66;;;8.42;100.00
68948;BME280;55996;49.546;7.400;2024-03-22T04:23:06;-19671.16;;;8.28;100.00
68948;BME280;55996;49.546;7.400;2024-03-22T04:25:31;-19669.25;;;8.21;100.00
68948;BME280;55996;49.546;7.400;2024-03-22T04:27:56;-19669.66;;;8.22;100.00
68948;BME280;55996;49.546;7.400;2024-03-22T04:30:22;-19672.91;;;8.35;100.00
68948;BME280;55996;49.546;7.400;2024-03-22T04:32:47;-19672.25;;;8.32;100.00
68948;BME280;55996;49.546;7.400;2024-03-22T04:35:13;-19667.50;;;8.14;100.00
68948;BME280;55996;49.546;7.400;2024-03-22T04:37:38;-19672.09;;;8.32;100.00
68948;BME280;55996;49.546;7.400;2024-03-22T04:40:04;-19671.16;;;8.28;100.00
68948;BME280;55996;49.546;7.400;2024-03-22T04:42:29;-19665.75;;;8.07;100.00
68948;BME280;55996;49.546;7.400;2024-03-22T04:44:55;-19663.31;;;7.98;100.00
68948;BME280;55996;49.546;7.400;2024-03-22T04:47:20;-19664.00;;;8.01;100.00
68948;BME280;55996;49.546;7.400;2024-03-22T04:49:46;-19664.81;;;8.04;100.00
68948;BME280;55996;49.546;7.400;2024-03-22T04:52:11;-19663.31;;;7.98;100.00
68948;BME280;55996;49.546;7.400;2024-03-22T04:54:36;-19664.66;;;8.03;100.00
68948;BME280;55996;49.546;7.400;2024-03-22T04:57:02;-19665.34;;;8.06;100.00
68948;BME280;55996;49.546;7.400;2024-03-22T04:59:27;-19664.41;;;8.02;100.00
68948;BME280;55996;49.546;7.400;2024-03-22T05:01:53;-19665.34;;;8.06;100.00
68948;BME280;55996;49.546;7.400;2024-03-22T05:04:18;-19665.34;;;8.06;100.00
68948;BME280;55996;49.546;7.400;2024-03-22T05:06:44;-19663.59;;;7.99;100.00
68948;BME280;55996;49.546;7.400;2024-03-22T05:09:09;-19662.91;;;7.97;100.00
68948;BME280;55996;49.546;7.400;2024-03-22T05:11:35;-19660.34;;;7.87;100.00
68948;BME280;55996;49.546;7.400;2024-03-22T05:14:00;-19659.66;;;7.84;100.00
68948;BME280;55996;49.546;7.400;2024-03-22T05:16:26;-19660.47;;;7.87;100.00
68948;BME280;55996;49.546;7.400;2024-03-22T05:18:51;-19661.28;;;7.90;100.00
68948;BME280;55996;49.546;7.400;2024-03-22T05:21:16;-19660.88;;;7.89;100.00
68948;BME280;55996;49.546;7.400;2024-03-22T05:23:42;-19663.19;;;7.98;100.00
68948;BME280;55996;49.546;7.400;2024-03-22T05:26:07;-19661.44;;;7.91;100.00
68948;BME280;55996;49.546;7.400;2024-03-22T05:28:33;-19665.47;;;8.06;100.00
68948;BME280;55996;49.546;7.400;2024-03-22T05:30:58;-19666.44;;;8.10;100.00
68948;BME280;55996;49.546;7.400;2024-03-22T05:33:24;-19666.16;;;8.09;100.00
68948;BME280;55996;49.546;7.400;2024-03-22T05:35:49;-19666.44;;;8.10;100.00
68948;BME280;55996;49.546;7.400;2024-03-22T05:38:17;-19668.06;;;8.16;100.00
68948;BME280;55996;49.546;7.400;2024-03-22T05:40:43;-19671.44;;;8.29;100.00
68948;BME280;55996;49.546;7.400;2024-03-22T05:43:11;-19671.97;;;8.31;100.00
68948;BME280;55996;49.546;7.400;2024-03-22T05:45:37;-19672.38;;;8.33;100.00
68948;BME280;55996;49.546;7.400;2024-03-22T05:48:04;-19669.53;;;8.22;100.00
68948;BME280;55996;49.546;7.400;2024-03-22T05:50:30;-19674.25;;;8.40;100.00
68948;BME280;55996;49.546;7.400;2024-03-22T05:52:57;-19674.66;;;8.42;100.00
68948;BME280;55996;49.546;7.400;2024-03-22T05:55:23;-19676.44;;;8.48;100.00
68948;BME280;55996;49.546;7.400;2024-03-22T05:57:53;-19674.41;;;8.40;100.00
68948;BME280;55996;49.546;7.400;2024-03-22T06:00:19;-19677.38;;;8.52;100.00
68948;BME280;55996;49.546;7.400;2024-03-22T06:02:44;-19678.84;;;8.58;100.00
68948;BME280;55996;49.546;7.400;2024-03-22T06:05:11;-19680.63;;;8.64;100.00
68948;BME280;55996;49.546;7.400;2024-03-22T06:07:36;-19683.31;;;8.75;100.00
68948;BME280;55996;49.546;7.400;2024-03-22T06:10:09;-19684.25;;;8.78;100.00
68948;BME280;55996;49.546;7.400;2024-03-22T06:12:38;-19685.19;;;8.82;100.00
68948;BME280;55996;49.546;7.400;2024-03-22T06:15:04;-19686.69;;;8.87;100.00
68948;BME280;55996;49.546;7.400;2024-03-22T06:17:32;-19687.09;;;8.89;100.00
68948;BME280;55996;49.546;7.400;2024-03-22T06:19:59;-19687.91;;;8.92;100.00
68948;BME280;55996;49.546;7.400;2024-03-22T06:22:25;-19690.06;;;9.00;100.00
68948;BME280;55996;49.546;7.400;2024-03-22T06:24:51;-19690.59;;;9.02;100.00
68948;BME280;55996;49.546;7.400;2024-03-22T06:27:18;-19691.41;;;9.06;100.00
68948;BME280;55996;49.546;7.400;2024-03-22T06:29:43;-19691.16;;;9.04;100.00
68948;BME280;55996;49.546;7.400;2024-03-22T06:32:09;-19694.25;;;9.16;100.00
68948;BME280;55996;49.546;7.400;2024-03-22T06:34:34;-19696.13;;;9.24;100.00
68948;BME280;55996;49.546;7.400;2024-03-22T06:37:00;-19697.75;;;9.30;100.00
68948;BME280;55996;49.546;7.400;2024-03-22T06:39:25;-19700.44;;;9.40;100.00
68948;BME280;55996;49.546;7.400;2024-03-22T06:41:51;-19700.84;;;9.42;100.00
68948;BME280;55996;49.546;7.400;2024-03-22T06:44:16;-19702.22;;;9.47;100.00
68948;BME280;55996;49.546;7.400;2024-03-22T06:46:42;-19702.47;;;9.48;100.00
68948;BME280;55996;49.546;7.400;2024-03-22T06:49:07;-19703.81;;;9.53;100.00
68948;BME280;55996;49.546;7.400;2024-03-22T06:51:32;-19701.81;;;9.45;100.00
68948;BME280;55996;49.546;7.400;2024-03-22T06:53:58;-19703.16;;;9.50;100.00
68948;BME280;55996;49.546;7.400;2024-03-22T06:56:23;-19704.38;;;9.55;100.00
68948;BME280;55996;49.546;7.400;2024-03-22T06:58:48;-19704.50;;;9.56;100.00
68948;BME280;55996;49.546;7.400;2024-03-22T07:01:14;-19707.75;;;9.68;100.00
68948;BME280;55996;49.546;7.400;2024-03-22T07:03:39;-19702.47;;;9.48;100.00
68948;BME280;55996;49.546;7.400;2024-03-22T07:06:05;-19709.22;;;9.74;100.00
68948;BME280;55996;49.546;7.400;2024-03-22T07:08:32;-19710.84;;;9.80;100.00
68948;BME280;55996;49.546;7.400;2024-03-22T07:10:58;-19711.66;;;9.83;100.00
68948;BME280;55996;49.546;7.400;2024-03-22T07:13:23;-19713.53;;;9.90;100.00
68948;BME280;55996;49.546;7.400;2024-03-22T07:15:48;-19712.47;;;9.86;100.00
68948;BME280;55996;49.546;7.400;2024-03-22T07:18:14;-19712.59;;;9.87;100.00
68948;BME280;55996;49.546;7.400;2024-03-22T07:20:41;-19717.44;;;10.05;100.00
68948;BME280;55996;49.546;7.400;2024-03-22T07:23:06;-19720.94;;;10.18;100.00
68948;BME280;55996;49.546;7.400;2024-03-22T07:25:32;-19722.56;;;10.25;100.00
68948;BME280;55996;49.546;7.400;2024-03-22T07:27:57;-19724.59;;;10.32;100.00
68948;BME280;55996;49.546;7.400;2024-03-22T07:30:22;-19726.06;;;10.38;100.00
68948;BME280;55996;49.546;7.400;2024-03-22T07:32:48;-19721.09;;;10.19;100.00
68948;BME280;55996;49.546;7.400;2024-03-22T07:35:13;-19722.56;;;10.25;100.00
68948;BME280;55996;49.546;7.400;2024-03-22T07:37:39;-19726.47;;;10.40;100.00
68948;BME280;55996;49.546;7.400;2024-03-22T07:40:04;-19725.00;;;10.34;100.00
68948;BME280;55996;49.546;7.400;2024-03-22T07:42:30;-19727.00;;;10.42;100.00
68948;BME280;55996;49.546;7.400;2024-03-22T07:44:56;-19730.94;;;10.57;100.00
68948;BME280;55996;49.546;7.400;2024-03-22T07:47:21;-19734.56;;;10.71;100.00
68948;BME280;55996;49.546;7.400;2024-03-22T07:49:46;-19736.97;;;10.80;100.00
68948;BME280;55996;49.546;7.400;2024-03-22T07:52:12;-19739.94;;;10.91;100.00
68948;BME280;55996;49.546;7.400;2024-03-22T07:54:37;-19740.34;;;10.93;100.00
68948;BME280;55996;49.546;7.400;2024-03-22T07:57:03;-19743.72;;;11.06;100.00
68948;BME280;55996;49.546;7.400;2024-03-22T07:59:29;-19744.78;;;11.10;100.00
68948;BME280;55996;49.546;7.400;2024-03-22T08:01:54;-19748.69;;;11.25;100.00
68948;BME280;55996;49.546;7.400;2024-03-22T08:04:20;-19751.53;;;11.36;100.00
68948;BME280;55996;49.546;7.400;2024-03-22T08:06:46;-19751.78;;;11.37;100.00
68948;BME280;55996;49.546;7.400;2024-03-22T08:09:11;-19752.75;;;11.40;100.00
68948;BME280;55996;49.546;7.400;2024-03-22T08:11:36;-19754.75;;;11.48;100.00
68948;BME280;55996;49.546;7.400;2024-03-22T08:14:02;-19751.25;;;11.35;100.00
68948;BME280;55996;49.546;7.400;2024-03-22T08:16:31;-19754.75;;;11.48;100.00
68948;BME280;55996;49.546;7.400;2024-03-22T08:18:57;-19753.00;;;11.41;100.00
68948;BME280;55996;49.546;7.400;2024-03-22T08:21:24;-19756.09;;;11.53;100.00
68948;BME280;55996;49.546;7.400;2024-03-22T08:23:50;-19756.63;;;11.55;100.00
68948;BME280;55996;49.546;7.400;2024-03-22T08:26:16;-19760.00;;;11.68;100.00
68948;BME280;55996;49.546;7.400;2024-03-22T08:28:41;-19756.09;;;11.53;100.00
68948;BME280;55996;49.546;7.400;2024-03-22T08:31:07;-19759.59;;;11.67;100.00
68948;BME280;55996;49.546;7.400;2024-03-22T08:33:32;-19759.88;;;11.68;100.00
68948;BME280;55996;49.546;7.400;2024-03-22T08:35:59;-19764.72;;;11.86;100.00
68948;BME280;55996;49.546;7.400;2024-03-22T08:38:26;-19767.94;;;11.99;100.00
68948;BME280;55996;49.546;7.400;2024-03-22T08:40:52;-19768.75;;;12.02;100.00
68948;BME280;55996;49.546;7.400;2024-03-22T08:43:18;-19774.00;;;12.22;100.00
68948;BME280;55996;49.546;7.400;2024-03-22T08:45:43;-19779.50;;;12.43;100.00
68948;BME280;55996;49.546;7.400;2024-03-22T08:48:09;-19781.13;;;12.49;100.00
68948;BME280;55996;49.546;7.400;2024-03-22T08:50:34;-19785.28;;;12.65;100.00
68948;BME280;55996;49.546;7.400;2024-03-22T08:53:00;-19786.75;;;12.71;100.00
68948;BME280;55996;49.546;7.400;2024-03-22T08:55:30;-19787.16;;;12.72;100.00
68948;BME280;55996;49.546;7.400;2024-03-22T08:57:55;-19790.53;;;12.85;100.00
68948;BME280;55996;49.546;7.400;2024-03-22T09:00:21;-19792.16;;;12.91;100.00
68948;BME280;55996;49.546;7.400;2024-03-22T09:02:47;-19789.59;;;12.82;100.00
68948;BME280;55996;49.546;7.400;2024-03-22T09:05:13;-19790.81;;;12.86;100.00
68948;BME280;55996;49.546;7.400;2024-03-22T09:07:38;-19792.94;;;12.95;100.00
68948;BME280;55996;49.546;7.400;2024-03-22T09:10:05;-19794.28;;;13.00;100.00
68948;BME280;55996;49.546;7.400;2024-03-22T09:12:32;-19797.66;;;13.13;100.00
68948;BME280;55996;49.546;7.400;2024-03-22T09:14:57;-19802.34;;;13.31;100.00
68948;BME280;55996;49.546;7.400;2024-03-22T09:17:23;-19802.09;;;13.30;100.00
68948;BME280;55996;49.546;7.400;2024-03-22T09:19:49;-19806.91;;;13.48;100.00
68948;BME280;55996;49.546;7.400;2024-03-22T09:22:16;-19809.59;;;13.59;100.00
68948;BME280;55996;49.546;7.400;2024-03-22T09:24:42;-19811.88;;;13.67;97.14
68948;BME280;55996;49.546;7.400;2024-03-22T09:27:08;-19808.78;;;13.55;99.86
68948;BME280;55996;49.546;7.400;2024-03-22T09:29:48;-19809.34;;;13.58;98.23
68948;BME280;55996;49.546;7.400;2024-03-22T09:32:15;-19814.56;;;13.78;100.00
68948;BME280;55996;49.546;7.400;2024-03-22T09:34:44;-19817.13;;;13.87;95.44
68948;BME280;55996;49.546;7.400;2024-03-22T09:37:10;-19815.25;;;13.80;96.24
68948;BME280;55996;49.546;7.400;2024-03-22T09:39:37;-19820.06;;;13.99;89.46
68948;BME280;55996;49.546;7.400;2024-03-22T09:42:06;-19824.63;;;14.16;87.04
68948;BME280;55996;49.546;7.400;2024-03-22T09:44:32;-19824.63;;;14.16;91.07
68948;BME280;55996;49.546;7.400;2024-03-22T09:46:59;-19822.34;;;14.08;91.62
68948;BME280;55996;49.546;7.400;2024-03-22T09:49:25;-19826.66;;;14.24;88.42
68948;BME280;55996;49.546;7.400;2024-03-22T09:51:51;-19833.34;;;14.50;84.91
68948;BME280;55996;49.546;7.400;2024-03-22T09:54:18;-19832.41;;;14.46;88.03
68948;BME280;55996;49.546;7.400;2024-03-22T09:56:47;-19835.09;;;14.57;85.58
68948;BME280;55996;49.546;7.400;2024-03-22T09:59:15;-19833.75;;;14.51;87.88
68948;BME280;55996;49.546;7.400;2024-03-22T10:01:41;-19833.63;;;14.51;85.26
68948;BME280;55996;49.546;7.400;2024-03-22T10:04:08;-19833.22;;;14.49;83.62
68948;BME280;55996;49.546;7.400;2024-03-22T10:06:35;-19832.69;;;14.47;82.43
68948;BME280;55996;49.546;7.400;2024-03-22T10:09:01;-19831.59;;;14.43;84.30
68948;BME280;55996;49.546;7.400;2024-03-22T10:11:27;-19832.41;;;14.46;83.02
68948;BME280;55996;49.546;7.400;2024-03-22T10:14:01;-19836.31;;;14.61;82.26
68948;BME280;55996;49.546;7.400;2024-03-22T10:16:33;-19837.09;;;14.64;85.83
68948;BME280;55996;49.546;7.400;2024-03-22T10:18:59;-19839.78;;;14.75;81.50
68948;BME280;55996;49.546;7.400;2024-03-22T10:21:24;-19839.66;;;14.74;84.34
68948;BME280;55996;49.546;7.400;2024-03-22T10:23:50;-19846.88;;;15.02;82.84
68948;BME280;55996;49.546;7.400;2024-03-22T10:26:18;-19842.06;;;14.83;82.68
68948;BME280;55996;49.546;7.400;2024-03-22T10:28:44;-19845.69;;;14.97;85.46
68948;BME280;55996;49.546;7.400;2024-03-22T10:31:12;-19845.00;;;14.95;81.70
68948;BME280;55996;49.546;7.400;2024-03-22T10:33:38;-19847.28;;;15.04;83.28
68948;BME280;55996;49.546;7.400;2024-03-22T10:36:06;-19848.38;;;15.08;84.12
68948;BME280;55996;49.546;7.400;2024-03-22T10:38:32;-19852.50;;;15.24;83.77
68948;BME280;55996;49.546;7.400;2024-03-22T10:40:59;-19857.59;;;15.43;83.28
68948;BME280;55996;49.546;7.400;2024-03-22T10:43:25;-19856.28;;;15.38;84.29
68948;BME280;55996;49.546;7.400;2024-03-22T10:45:51;-19863.22;;;15.65;81.16
68948;BME280;55996;49.546;7.400;2024-03-22T10:48:25;-19869.38;;;15.89;79.63
68948;BME280;55996;49.546;7.400;2024-03-22T10:50:59;-19870.19;;;15.92;80.93
68948;BME280;55996;49.546;7.400;2024-03-22T10:53:25;-19872.88;;;16.02;79.82
68948;BME280;55996;49.546;7.400;2024-03-22T10:55:57;-19873.41;;;16.04;83.69
68948;BME280;55996;49.546;7.400;2024-03-22T10:58:26;-19872.88;;;16.02;82.87
68948;BME280;55996;49.546;7.400;2024-03-22T11:00:53;-19875.69;;;16.13;81.59
68948;BME280;55996;49.546;7.400;2024-03-22T11:03:20;-19874.63;;;16.09;78.78
68948;BME280;55996;49.546;7.400;2024-03-22T11:05:49;-19876.47;;;16.16;81.59
68948;BME280;55996;49.546;7.400;2024-03-22T11:08:42;-19879.03;;;16.26;77.79
68948;BME280;55996;49.546;7.400;2024-03-22T11:11:11;-19880.63;;;16.32;86.00
68948;BME280;55996;49.546;7.400;2024-03-22T11:13:38;-19880.22;;;16.30;80.38
68948;BME280;55996;49.546;7.400;2024-03-22T11:16:05;-19874.22;;;16.07;81.47
68948;BME280;55996;49.546;7.400;2024-03-22T11:18:30;-19873.94;;;16.06;83.18
68948;BME280;55996;49.546;7.400;2024-03-22T11:20:57;-19873.13;;;16.03;82.56
68948;BME280;55996;49.546;7.400;2024-03-22T11:23:32;-19869.38;;;15.89;83.27
68948;BME280;55996;49.546;7.400;2024-03-22T11:25:58;-19868.59;;;15.86;83.29
68948;BME280;55996;49.546;7.400;2024-03-22T11:28:26;-19866.31;;;15.77;82.68
68948;BME280;55996;49.546;7.400;2024-03-22T11:30:51;-19868.84;;;15.87;83.54
68948;BME280;55996;49.546;7.400;2024-03-22T11:33:17;-19867.78;;;15.82;81.31
68948;BME280;55996;49.546;7.400;2024-03-22T11:35:49;-19866.56;;;15.78;84.55
68948;BME280;55996;49.546;7.400;2024-03-22T11:38:30;-19875.41;;;16.12;84.02
68948;BME280;55996;49.546;7.400;2024-03-22T11:40:57;-19881.44;;;16.35;80.26
68948;BME280;55996;49.546;7.400;2024-03-22T11:43:23;-19884.09;;;16.45;78.31
68948;BME280;55996;49.546;7.400;2024-03-22T11:45:49;-19884.38;;;16.46;78.64
68948;BME280;55996;49.546;7.400;2024-03-22T11:48:15;-19892.66;;;16.78;81.06
68948;BME280;55996;49.546;7.400;2024-03-22T11:50:42;-19896.81;;;16.94;81.20
68948;BME280;55996;49.546;7.400;2024-03-22T11:53:08;-19897.63;;;16.98;77.18
68948;BME280;55996;49.546;7.400;2024-03-22T11:55:36;-19901.22;;;17.12;80.38
68948;BME280;55996;49.546;7.400;2024-03-22T11:58:02;-19897.22;;;16.96;74.87
68948;BME280;55996;49.546;7.400;2024-03-22T12:00:27;-19899.22;;;17.04;78.75
68948;BME280;55996;49.546;7.400;2024-03-22T12:02:53;-19896.28;;;16.92;76.59
68948;BME280;55996;49.546;7.400;2024-03-22T12:05:19;-19901.91;;;17.14;74.81
68948;BME280;55996;49.546;7.400;2024-03-22T12:07:45;-19904.84;;;17.25;78.61
68948;BME280;55996;49.546;7.400;2024-03-22T12:10:11;-19908.31;;;17.39;71.05
68948;BME280;55996;49.546;7.400;2024-03-22T12:12:36;-19909.09;;;17.42;77.32
68948;BME280;55996;49.546;7.400;2024-03-22T12:15:03;-19910.16;;;17.46;75.52
68948;BME280;55996;49.546;7.400;2024-03-22T12:17:28;-19909.63;;;17.44;74.29
68948;BME280;55996;49.546;7.400;2024-03-22T12:19:54;-19915.66;;;17.67;75.29
68948;BME280;55996;49.546;7.400;2024-03-22T12:22:20;-19914.44;;;17.63;77.10
68948;BME280;55996;49.546;7.400;2024-03-22T12:24:45;-19912.84;;;17.56;74.63
68948;BME280;55996;49.546;7.400;2024-03-22T12:27:11;-19910.97;;;17.49;76.30
68948;BME280;55996;49.546;7.400;2024-03-22T12:29:36;-19912.97;;;17.57;79.16
68948;BME280;55996;49.546;7.400;2024-03-22T12:32:02;-19915.13;;;17.65;75.27
68948;BME280;55996;49.546;7.400;2024-03-22T12:34:29;-19914.84;;;17.64;75.89
68948;BME280;55996;49.546;7.400;2024-03-22T12:36:55;-19910.56;;;17.48;71.29
68948;BME280;55996;49.546;7.400;2024-03-22T12:39:21;-19909.09;;;17.42;70.49
68948;BME280;55996;49.546;7.400;2024-03-22T12:41:46;-19903.63;;;17.21;75.75